Time;durP1;ratioP1;P1;durP2;ratioP2;P2;SDS_P1;SDS_P2;PMS_P1;PMS_P2;Temp;Humidity;BMP_temperature;BMP_pressure;BME280_temperature;BME280_humidity;BME280_pressure;Samples;Min_cycle;Max_cycle;Signal;HPM_P1;HPM_P2
2022/07/01 00:02:08;;;;;;;22.10;11.40;;;;;;;25.36;45.66;98682.98;105872;1277;97980;-75
2022/07/01 00:04:42;;;;;;;20.60;11.40;;;;;;;25.32;45.79;98683.45;105849;1278;111406;-74
2022/07/01 00:07:11;;;;;;;21.50;10.90;;;;;;;25.29;45.94;98683.22;105935;1278;97925;-73
2022/07/01 00:09:39;;;;;;;22.70;11.60;;;;;;;25.26;45.99;98682.16;105828;1277;108820;-74
2022/07/01 00:12:08;;;;;;;22.50;12.60;;;;;;;25.23;46.12;98683.27;105888;1277;96448;-73
2022/07/01 00:14:36;;;;;;;21.60;12.10;;;;;;;25.21;46.17;98682.35;105992;1277;97982;-74
2022/07/01 00:17:04;;;;;;;23.30;11.70;;;;;;;25.17;46.28;98683.67;105895;1278;111383;-73
2022/07/01 00:19:32;;;;;;;22.10;12.20;;;;;;;25.12;46.41;98683.05;105867;1277;96978;-71
2022/07/01 00:22:00;;;;;;;23.10;12.20;;;;;;;25.07;46.51;98683.49;105812;1277;107728;-70
2022/07/01 00:24:28;;;;;;;23.20;11.50;;;;;;;25.02;46.56;98689.46;105801;1277;97884;-72
2022/07/01 00:26:55;;;;;;;22.80;11.90;;;;;;;24.98;46.65;98692.45;105946;1278;97922;-73
2022/07/01 00:29:23;;;;;;;19.70;11.60;;;;;;;24.93;46.79;98691.84;105851;1277;111457;-73
2022/07/01 00:31:51;;;;;;;23.00;12.80;;;;;;;24.88;46.97;98688.49;105866;1278;95804;-73
2022/07/01 00:34:19;;;;;;;23.60;12.70;;;;;;;24.85;47.07;98691.20;105852;1277;107726;-73
2022/07/01 00:36:46;;;;;;;24.90;11.80;;;;;;;24.80;47.06;98688.02;105915;1277;97852;-72
2022/07/01 00:39:14;;;;;;;20.60;12.20;;;;;;;24.76;47.30;98691.46;105967;1277;97904;-71
2022/07/01 00:41:42;;;;;;;20.70;11.60;;;;;;;24.72;47.34;98690.42;105857;1277;110393;-71
2022/07/01 00:44:19;;;;;;;20.70;11.00;;;;;;;24.69;47.46;98690.08;105889;1277;95684;-69
2022/07/01 00:46:50;;;;;;;25.10;12.70;;;;;;;24.64;47.60;98692.94;105891;1277;106846;-71
2022/07/01 00:49:20;;;;;;;22.40;11.90;;;;;;;24.60;47.76;98694.20;105931;1277;97053;-72
2022/07/01 00:51:48;;;;;;;21.80;12.00;;;;;;;24.55;47.78;98697.71;105883;1278;95254;-73
2022/07/01 00:54:16;;;;;;;21.70;12.30;;;;;;;24.50;48.03;98696.01;105841;1278;111119;-72
2022/07/01 00:56:47;;;;;;;22.80;12.40;;;;;;;24.47;47.95;98693.60;105874;1277;97912;-73
2022/07/01 00:59:15;;;;;;;21.60;12.10;;;;;;;24.41;48.14;98690.55;105890;1278;107739;-74
2022/07/01 01:01:45;;;;;;;23.70;12.20;;;;;;;24.37;48.45;98691.89;105867;1277;97864;-73
2022/07/01 01:04:14;;;;;;;20.90;11.70;;;;;;;24.34;48.51;98691.93;105920;1277;97989;-73
2022/07/01 01:06:42;;;;;;;22.40;12.00;;;;;;;24.30;48.41;98695.74;105882;1277;111469;-74
2022/07/01 01:09:10;;;;;;;25.80;12.70;;;;;;;24.28;48.66;98696.70;105866;1277;97730;-74
2022/07/01 01:11:39;;;;;;;21.70;11.80;;;;;;;24.25;48.90;98696.77;105888;1277;107786;-74
2022/07/01 01:14:07;;;;;;;20.20;11.30;;;;;;;24.21;48.87;98687.86;105795;1281;97970;-72
2022/07/01 01:16:35;;;;;;;23.70;11.30;;;;;;;24.19;48.97;98682.13;105883;1277;97874;-74
2022/07/01 01:19:06;;;;;;;24.10;11.90;;;;;;;24.17;48.94;98675.95;105865;1277;111382;-73
2022/07/01 01:21:35;;;;;;;21.20;11.10;;;;;;;24.12;49.06;98677.66;105906;1276;97956;-74
2022/07/01 01:24:06;;;;;;;20.40;12.30;;;;;;;24.06;49.09;98678.14;105823;1278;107758;-73
2022/07/01 01:26:33;;;;;;;20.40;11.90;;;;;;;24.00;49.18;98677.77;105920;1277;97946;-73
2022/07/01 01:29:03;;;;;;;21.10;11.60;;;;;;;23.94;49.16;98679.17;105936;1278;97871;-74
2022/07/01 01:31:33;;;;;;;20.60;11.50;;;;;;;23.88;49.55;98681.54;105941;1278;111400;-75
2022/07/01 01:34:03;;;;;;;22.80;12.00;;;;;;;23.83;49.39;98680.80;105934;1278;95269;-73
2022/07/01 01:36:30;;;;;;;22.80;11.20;;;;;;;23.79;49.64;98681.66;105838;1277;107541;-73
2022/07/01 01:39:20;;;;;;;26.90;12.30;;;;;;;23.77;49.57;98682.34;105797;1277;97746;-75
2022/07/01 01:41:47;;;;;;;20.90;11.70;;;;;;;23.73;50.06;98683.55;105934;1277;96025;-74
2022/07/01 01:44:15;;;;;;;21.10;11.70;;;;;;;23.70;49.87;98685.87;105927;1277;111015;-74
2022/07/01 01:46:42;;;;;;;19.50;10.60;;;;;;;23.63;49.86;98684.02;105920;1277;95206;-74
2022/07/01 01:49:12;;;;;;;21.20;11.40;;;;;;;23.58;50.21;98685.10;105741;1277;107719;-74
2022/07/01 01:51:40;;;;;;;20.40;11.40;;;;;;;23.51;50.17;98687.05;105747;1277;100034;-74
2022/07/01 01:54:08;;;;;;;21.40;11.60;;;;;;;23.46;50.29;98687.48;105753;1277;97880;-74
2022/07/01 01:56:36;;;;;;;23.80;12.10;;;;;;;23.43;50.62;98685.61;105727;1277;111407;-74
2022/07/01 01:59:04;;;;;;;22.90;12.50;;;;;;;23.38;50.52;98691.15;105769;1277;97730;-73
2022/07/01 02:01:33;;;;;;;21.30;12.00;;;;;;;23.35;50.56;98695.15;105750;1277;107765;-74
2022/07/01 02:04:00;;;;;;;21.20;11.50;;;;;;;23.33;50.77;98693.94;105940;1277;96578;-73
2022/07/01 02:06:28;;;;;;;21.20;12.40;;;;;;;23.30;51.00;98700.73;105981;1277;97879;-74
2022/07/01 02:08:56;;;;;;;22.10;12.40;;;;;;;23.26;50.88;98701.78;105992;1277;111279;-74
2022/07/01 02:11:24;;;;;;;24.30;11.80;;;;;;;23.22;51.11;98705.14;105991;1277;97869;-73
2022/07/01 02:13:52;;;;;;;21.10;11.60;;;;;;;23.18;51.10;98699.77;105967;1277;107740;-74
2022/07/01 02:16:19;;;;;;;23.80;12.60;;;;;;;23.15;51.17;98705.81;105980;1277;95273;-73
2022/07/01 02:18:48;;;;;;;22.40;12.10;;;;;;;23.13;51.12;98703.30;106004;1277;97983;-73
2022/07/01 02:21:16;;;;;;;22.70;12.20;;;;;;;23.11;51.45;98703.46;105966;1277;110392;-72
2022/07/01 02:23:44;;;;;;;23.80;11.70;;;;;;;23.11;51.38;98696.82;106028;1278;98592;-73
2022/07/01 02:26:14;;;;;;;21.50;12.20;;;;;;;23.10;51.71;98698.61;105978;1277;107462;-73
2022/07/01 02:28:42;;;;;;;21.00;12.00;;;;;;;23.07;51.59;98701.61;105939;1277;96025;-74
2022/07/01 02:31:10;;;;;;;24.70;11.80;;;;;;;23.04;51.62;98697.91;105978;1277;97960;-75
2022/07/01 02:33:38;;;;;;;21.30;13.20;;;;;;;23.01;51.83;98702.27;106000;1276;111349;-75
2022/07/01 02:36:06;;;;;;;21.40;12.10;;;;;;;22.98;51.89;98703.33;106025;1277;97934;-75
2022/07/01 02:38:34;;;;;;;24.70;11.50;;;;;;;22.95;52.04;98705.40;105893;1277;107785;-75
2022/07/01 02:41:02;;;;;;;24.40;11.80;;;;;;;22.91;52.18;98703.24;106009;1277;98284;-74
2022/07/01 02:43:30;;;;;;;21.00;11.50;;;;;;;22.87;52.16;98705.14;106031;1277;97950;-75
2022/07/01 02:45:58;;;;;;;22.10;12.10;;;;;;;22.83;52.28;98707.05;105966;1277;111428;-75
2022/07/01 02:48:26;;;;;;;21.60;12.30;;;;;;;22.80;52.33;98705.56;105980;1277;97950;-75
2022/07/01 02:50:54;;;;;;;23.00;12.10;;;;;;;22.75;52.31;98708.14;105982;1276;107433;-75
2022/07/01 02:53:21;;;;;;;24.30;13.60;;;;;;;22.72;52.43;98708.33;105970;1277;97956;-73
2022/07/01 02:55:49;;;;;;;21.80;13.40;;;;;;;22.70;52.65;98708.42;105892;1278;98024;-75
2022/07/01 02:58:17;;;;;;;26.10;14.10;;;;;;;22.68;52.55;98711.28;105861;1277;111376;-74
2022/07/01 03:00:45;;;;;;;24.00;14.60;;;;;;;22.65;52.87;98714.19;105972;1276;97756;-74
2022/07/01 03:03:13;;;;;;;20.60;12.60;;;;;;;22.62;52.75;98717.21;105968;1276;108288;-73
2022/07/01 03:05:40;;;;;;;23.60;13.30;;;;;;;22.60;52.89;98717.13;105914;1277;97899;-73
2022/07/01 03:08:08;;;;;;;22.40;13.50;;;;;;;22.57;53.01;98714.19;105981;1276;97931;-73
2022/07/01 03:10:36;;;;;;;22.40;13.90;;;;;;;22.56;53.04;98717.61;105897;1277;111362;-74
2022/07/01 03:13:04;;;;;;;25.40;13.50;;;;;;;22.56;53.12;98717.39;105978;1276;95261;-74
2022/07/01 03:15:31;;;;;;;23.10;13.90;;;;;;;22.56;53.21;98716.48;105906;1276;107766;-74
2022/07/01 03:17:59;;;;;;;23.30;12.50;;;;;;;22.57;53.57;98712.23;105829;1277;97975;-73
2022/07/01 03:20:27;;;;;;;22.80;13.00;;;;;;;22.58;53.45;98715.15;105853;1276;97999;-73
2022/07/01 03:22:55;;;;;;;23.80;14.10;;;;;;;22.60;53.59;98720.92;105847;1277;111448;-73
2022/07/01 03:25:23;;;;;;;24.90;14.70;;;;;;;22.61;53.79;98722.61;105838;1276;96379;-73
2022/07/01 03:27:51;;;;;;;27.10;15.20;;;;;;;22.63;53.83;98731.77;105852;1277;107542;-73
2022/07/01 03:30:18;;;;;;;24.70;15.10;;;;;;;22.65;53.82;98736.50;105820;1277;96454;-75
2022/07/01 03:32:46;;;;;;;25.30;13.40;;;;;;;22.68;54.13;98734.52;105867;1276;95277;-74
2022/07/01 03:38:02;;;;;;;23.10;13.70;;;;;;;22.74;54.29;98738.23;106010;1276;97953;-73
2022/07/01 03:40:31;;;;;;;23.20;13.50;;;;;;;22.76;54.34;98738.38;106012;1277;107879;-74
2022/07/01 03:43:00;;;;;;;21.90;12.00;;;;;;;22.80;54.54;98738.10;106004;1276;97966;-72
2022/07/01 03:45:28;;;;;;;22.80;12.70;;;;;;;22.83;54.45;98734.48;105835;1278;97889;-71
2022/07/01 03:47:56;;;;;;;22.90;12.70;;;;;;;22.86;54.54;98738.17;105817;1276;218972;-71
2022/07/01 03:50:25;;;;;;;23.70;12.90;;;;;;;22.90;54.71;98740.73;105972;1277;98944;-72
2022/07/01 03:55:41;;;;;;;23.60;12.70;;;;;;;22.98;54.91;98733.08;105995;1276;95188;-70
2022/07/01 03:58:09;;;;;;;21.50;11.50;;;;;;;23.01;54.80;98734.85;106004;1276;97970;-74
2022/07/01 04:00:38;;;;;;;21.90;12.40;;;;;;;23.04;54.98;98733.26;105974;1276;111141;-70
2022/07/01 04:03:07;;;;;;;23.80;12.90;;;;;;;23.09;55.08;98735.20;105972;1277;97913;-73
2022/07/01 04:05:37;;;;;;;20.40;11.60;;;;;;;23.13;55.14;98733.52;105970;1274;107701;-72
2022/07/01 04:08:07;;;;;;;28.10;11.70;;;;;;;23.18;55.20;98733.88;105952;1277;97038;-73
2022/07/01 04:10:35;;;;;;;23.80;12.60;;;;;;;23.23;55.06;98734.67;105989;1276;97896;-73
2022/07/01 04:13:03;;;;;;;23.10;12.20;;;;;;;23.28;55.02;98733.77;105924;1277;110544;-70
2022/07/01 04:15:51;;;;;;;21.40;12.00;;;;;;;23.33;55.32;98734.59;105986;1276;96384;-72
2022/07/01 04:18:20;;;;;;;24.50;14.10;;;;;;;23.37;55.32;98730.69;105954;1276;107675;-72
2022/07/01 04:22:32;;;;;;;25.50;12.60;;;;;;;23.42;55.45;98734.00;105985;1277;95281;-69
2022/07/01 04:23:35;;;;;;;23.90;13.30;;;;;;;23.47;55.42;98736.19;105944;1276;95342;-68
2022/07/01 04:26:03;;;;;;;22.50;12.20;;;;;;;23.52;55.32;98733.41;105942;1277;112018;-69
2022/07/01 04:28:53;;;;;;;27.10;13.40;;;;;;;23.58;55.32;98738.80;105908;1276;98578;-71
2022/07/01 04:31:21;;;;;;;22.60;12.00;;;;;;;23.62;55.30;98733.48;105945;1276;106858;-72
2022/07/01 04:33:50;;;;;;;20.60;11.60;;;;;;;23.68;55.63;98729.89;106006;1276;98097;-78
2022/07/01 04:36:18;;;;;;;22.70;12.00;;;;;;;23.73;55.27;98727.94;105933;1276;97992;-73
2022/07/01 04:38:46;;;;;;;21.50;11.70;;;;;;;23.77;55.49;98726.63;105879;1277;112115;-73
2022/07/01 04:44:00;;;;;;;22.00;11.70;;;;;;;23.87;55.65;98729.09;105901;1276;108335;-71
2022/07/01 04:46:28;;;;;;;22.90;12.10;;;;;;;23.92;55.82;98732.40;105962;1277;97857;-73
2022/07/01 04:48:56;;;;;;;23.00;11.40;;;;;;;23.97;55.75;98728.45;105983;1276;97992;-71
2022/07/01 04:51:24;;;;;;;21.30;11.30;;;;;;;24.01;55.74;98723.45;105973;1276;111377;-73
2022/07/01 04:53:53;;;;;;;21.50;10.50;;;;;;;24.06;55.88;98724.16;105968;1277;97973;-73
2022/07/01 04:56:21;;;;;;;22.20;11.00;;;;;;;24.11;55.89;98728.72;105915;1276;107611;-73
2022/07/01 04:58:49;;;;;;;21.30;11.10;;;;;;;24.17;55.85;98728.48;105959;1276;97900;-73
2022/07/01 05:01:17;;;;;;;24.50;11.80;;;;;;;24.21;55.86;98728.41;105896;1276;96252;-72
2022/07/01 05:03:44;;;;;;;21.10;11.10;;;;;;;24.27;55.87;98732.78;105980;1277;111375;-72
2022/07/01 05:06:12;;;;;;;20.50;10.90;;;;;;;24.31;55.93;98735.67;106031;1276;97950;-72
2022/07/01 05:08:40;;;;;;;23.10;11.60;;;;;;;24.36;55.90;98734.92;105995;1276;107704;-72
2022/07/01 05:11:08;;;;;;;25.10;12.50;;;;;;;24.42;55.80;98731.61;105967;1276;97886;-69
2022/07/01 05:13:36;;;;;;;21.40;12.00;;;;;;;24.47;55.95;98733.23;106011;1276;95222;-72
2022/07/01 05:16:05;;;;;;;21.60;11.70;;;;;;;24.52;56.04;98731.21;106002;1276;111524;-72
2022/07/01 05:24:07;;;;;;;21.50;11.70;;;;;;;24.72;56.07;98734.80;105908;1276;97948;-72
2022/07/01 05:26:35;;;;;;;22.00;11.10;;;;;;;24.78;56.09;98737.58;105778;1278;95647;-72
2022/07/01 05:29:03;;;;;;;20.60;11.10;;;;;;;24.85;55.99;98732.38;105895;1276;110390;-73
2022/07/01 05:31:31;;;;;;;20.60;11.00;;;;;;;24.91;56.08;98734.19;105927;1277;97695;-73
2022/07/01 05:33:59;;;;;;;19.10;11.20;;;;;;;24.97;56.05;98736.23;105866;1276;107784;-76
2022/07/01 05:36:31;;;;;;;;;;;;;;;25.04;56.14;98740.94;105917;1277;97945;-72
2022/07/01 05:39:00;;;;;;;19.70;9.90;;;;;;;25.09;56.12;98743.71;105975;1276;97972;-73
2022/07/01 05:41:28;;;;;;;23.60;11.00;;;;;;;25.17;56.06;98746.16;105932;1277;111083;-71
2022/07/01 05:43:56;;;;;;;20.00;10.90;;;;;;;25.28;56.23;98744.99;105916;1276;95196;-73
2022/07/01 05:46:24;;;;;;;21.10;10.80;;;;;;;25.41;56.19;98742.58;105940;1276;107791;-72
2022/07/01 05:48:52;;;;;;;19.60;10.50;;;;;;;25.54;56.18;98739.54;105872;1276;98815;-73
2022/07/01 05:51:20;;;;;;;22.20;11.00;;;;;;;25.68;56.15;98741.27;105915;1276;95385;-73
2022/07/01 05:53:48;;;;;;;18.30;10.90;;;;;;;25.85;56.12;98738.75;105898;1276;110035;-72
2022/07/01 05:56:16;;;;;;;18.80;10.50;;;;;;;26.01;56.13;98740.27;105951;1276;97892;-72
2022/07/01 05:58:44;;;;;;;19.30;9.90;;;;;;;26.15;56.22;98741.77;105907;1276;107832;-73
2022/07/01 06:01:12;;;;;;;22.30;10.80;;;;;;;26.27;56.13;98739.56;105923;1277;97965;-72
2022/07/01 06:03:40;;;;;;;18.90;10.20;;;;;;;26.37;55.94;98737.71;105999;1276;98001;-71
2022/07/01 06:06:08;;;;;;;18.10;10.20;;;;;;;26.48;56.16;98734.30;105962;1277;111428;-72
2022/07/01 06:08:36;;;;;;;17.90;9.80;;;;;;;26.62;56.09;98734.30;105916;1276;97734;-73
2022/07/01 06:11:04;;;;;;;23.90;10.80;;;;;;;26.75;55.99;98735.09;105842;1276;107675;-73
2022/07/01 06:13:34;;;;;;;18.00;9.70;;;;;;;26.89;55.79;98737.28;105918;1276;97771;-74
2022/07/01 06:16:03;;;;;;;23.90;11.10;;;;;;;27.03;55.83;98734.36;105859;1277;95289;-72
2022/07/01 06:18:31;;;;;;;20.70;10.20;;;;;;;27.16;55.66;98735.58;105948;1276;111347;-73
2022/07/01 06:20:59;;;;;;;17.30;9.40;;;;;;;27.32;55.63;98735.84;105914;1276;97822;-71
2022/07/01 06:23:27;;;;;;;19.70;9.80;;;;;;;27.49;55.67;98738.09;105833;1276;107703;-73
2022/07/01 06:25:55;;;;;;;19.10;9.50;;;;;;;27.65;55.69;98738.61;105861;1276;96527;-73
2022/07/01 06:28:25;;;;;;;18.00;9.80;;;;;;;27.82;55.38;98737.99;105952;1276;97947;-73
2022/07/01 06:30:54;;;;;;;22.90;12.60;;;;;;;27.98;55.37;98733.32;105935;1276;111476;-72
2022/07/01 06:33:25;;;;;;;22.50;10.10;;;;;;;28.17;55.44;98735.61;105910;1276;95237;-72
2022/07/01 06:35:53;;;;;;;22.80;9.90;;;;;;;28.29;55.13;98735.38;105868;1276;107733;-74
2022/07/01 06:38:21;;;;;;;19.50;10.40;;;;;;;28.42;55.09;98732.02;105836;1277;97997;-73
2022/07/01 06:41:26;;;;;;;19.70;10.30;;;;;;;28.54;55.14;98728.43;105978;1276;97883;-72
2022/07/01 06:43:36;;;;;;;19.30;9.70;;;;;;;28.72;55.01;98727.45;105933;1276;111462;-72
2022/07/01 06:46:05;;;;;;;17.20;9.30;;;;;;;28.90;55.04;98728.77;105999;1276;97874;-72
2022/07/01 06:48:33;;;;;;;17.90;10.00;;;;;;;29.12;54.69;98730.15;105901;1276;107714;-73
2022/07/01 06:51:03;;;;;;;17.40;9.10;;;;;;;29.34;54.59;98733.52;105938;1277;95896;-76
2022/07/01 06:53:32;;;;;;;17.80;10.20;;;;;;;29.53;54.34;98730.08;106029;1276;96303;-77
2022/07/01 06:55:59;;;;;;;21.20;10.80;;;;;;;29.69;54.23;98730.41;105872;1276;111357;-78
2022/07/01 06:58:31;;;;;;;21.00;10.30;;;;;;;29.85;54.10;98727.13;105841;1277;96198;-79
2022/07/01 07:00:59;;;;;;;22.20;10.00;;;;;;;30.00;53.95;98729.39;105905;1276;107758;-78
2022/07/01 07:03:26;;;;;;;25.40;11.10;;;;;;;30.18;53.87;98728.08;105953;1276;97924;-77
2022/07/01 07:05:55;;;;;;;23.40;10.10;;;;;;;30.43;53.71;98730.70;106004;1276;96983;-78
2022/07/01 07:08:27;;;;;;;22.90;10.00;;;;;;;30.69;53.56;98728.27;105924;1276;111305;-76
2022/07/01 07:10:54;;;;;;;20.20;9.80;;;;;;;31.01;53.12;98722.33;105845;1276;97917;-79
2022/07/01 07:13:25;;;;;;;22.80;10.50;;;;;;;31.34;53.14;98722.26;105832;1276;107815;-79
2022/07/01 07:15:57;;;;;;;24.30;9.90;;;;;;;31.74;53.13;98719.13;106006;1276;98026;-79
2022/07/01 07:18:25;;;;;;;24.00;11.10;;;;;;;32.17;52.85;98715.19;105922;1277;97894;-76
2022/07/01 07:20:53;;;;;;;26.10;9.10;;;;;;;32.62;52.75;98713.55;105939;1276;110988;-78
2022/07/01 07:23:27;;;;;;;25.20;9.20;;;;;;;33.22;52.37;98707.81;105872;1276;95660;-77
2022/07/01 07:25:56;;;;;;;20.60;9.30;;;;;;;33.89;52.12;98705.12;105859;1276;107753;-78
2022/07/01 07:28:27;;;;;;;19.60;9.40;;;;;;;34.55;51.80;98704.23;105823;1276;97855;-78
2022/07/01 07:30:55;;;;;;;17.50;9.40;;;;;;;35.13;51.61;98701.27;105836;1276;98028;-78
2022/07/01 07:33:24;;;;;;;23.20;9.10;;;;;;;35.67;51.16;98701.83;105865;1276;111407;-77
2022/07/01 07:35:52;;;;;;;15.40;7.20;;;;;;;36.09;50.42;98700.39;105872;1276;98364;-76
2022/07/01 07:38:20;;;;;;;19.00;8.50;;;;;;;36.39;50.03;98698.11;105929;1277;107743;-77
2022/07/01 07:40:48;;;;;;;14.90;7.90;;;;;;;36.78;49.86;98700.95;105810;1278;96984;-77
2022/07/01 07:43:16;;;;;;;16.40;6.90;;;;;;;37.24;49.44;98701.80;106057;1276;97983;-77
2022/07/01 07:45:44;;;;;;;14.40;6.60;;;;;;;37.69;48.74;98708.62;105986;1276;111320;-78
2022/07/01 07:48:12;;;;;;;11.10;6.40;;;;;;;38.16;48.08;98705.73;106021;1276;98368;-78
2022/07/01 07:50:40;;;;;;;15.20;7.60;;;;;;;38.52;47.72;98705.34;105987;1276;107927;-78
2022/07/01 07:53:08;;;;;;;14.30;6.90;;;;;;;38.90;47.22;98704.23;106002;1277;97921;-77
2022/07/01 07:55:37;;;;;;;13.30;7.10;;;;;;;39.43;46.49;98708.93;105975;1276;97877;-78
2022/07/01 07:58:06;;;;;;;14.50;6.80;;;;;;;40.08;45.90;98704.30;105933;1276;110607;-78
2022/07/01 08:00:35;;;;;;;15.90;7.70;;;;;;;40.62;45.23;98707.24;105916;1276;95870;-79
2022/07/01 08:03:07;;;;;;;15.10;7.70;;;;;;;41.04;44.79;98704.95;105869;1276;107588;-78
2022/07/01 08:05:36;;;;;;;12.80;7.90;;;;;;;41.39;44.05;98701.28;105943;1276;97996;-78
2022/07/01 08:08:04;;;;;;;22.90;8.30;;;;;;;41.72;43.74;98705.13;106012;1276;95198;-79
2022/07/01 08:10:34;;;;;;;16.20;8.10;;;;;;;42.03;43.02;98705.43;105947;1276;111587;-78
2022/07/01 08:13:04;;;;;;;16.50;8.10;;;;;;;42.29;42.55;98703.17;105988;1276;98362;-77
2022/07/01 08:15:33;;;;;;;15.70;8.30;;;;;;;42.50;42.20;98707.52;105977;1276;108822;-77
2022/07/01 08:18:01;;;;;;;16.70;7.60;;;;;;;42.47;41.44;98707.98;105875;1276;97970;-75
2022/07/01 08:20:30;;;;;;;18.40;7.60;;;;;;;42.36;41.04;98708.42;105824;1276;97887;-74
2022/07/01 08:22:59;;;;;;;20.80;8.10;;;;;;;42.46;40.79;98713.02;105813;1277;111997;-73
2022/07/01 08:25:27;;;;;;;18.40;7.90;;;;;;;42.60;40.29;98717.07;105848;1276;97754;-74
2022/07/01 08:28:04;;;;;;;19.40;8.40;;;;;;;42.73;39.87;98715.18;105953;1276;107931;-75
2022/07/01 08:30:34;;;;;;;20.30;7.90;;;;;;;42.84;39.54;98716.87;105960;1276;97876;-73
2022/07/01 08:33:02;;;;;;;15.30;8.10;;;;;;;43.01;39.18;98716.82;106037;1277;96002;-73
2022/07/01 08:35:31;;;;;;;17.20;8.10;;;;;;;43.16;38.61;98714.30;105921;1276;111375;-73
2022/07/01 08:37:59;;;;;;;18.30;7.80;;;;;;;43.27;38.10;98710.14;105968;1276;95718;-72
2022/07/01 08:40:29;;;;;;;14.80;7.00;;;;;;;43.40;37.83;98714.46;105915;1276;108742;-74
2022/07/01 08:42:59;;;;;;;;;;;;;;;43.64;37.53;98709.25;105975;1276;97914;-73
2022/07/01 08:45:31;;;;;;;15.80;7.10;;;;;;;43.87;37.09;98708.66;106056;1276;97995;-75
2022/07/01 08:48:00;;;;;;;14.00;7.40;;;;;;;43.85;36.76;98712.34;105907;1276;111459;-74
2022/07/01 08:50:39;;;;;;;12.50;7.00;;;;;;;43.96;36.30;98712.00;105815;1277;97880;-73
2022/07/01 08:53:09;;;;;;;14.80;7.20;;;;;;;44.12;35.85;98704.73;105868;1276;107432;-73
2022/07/01 08:58:27;;;;;;;22.40;8.20;;;;;;;43.98;35.17;98700.59;105844;1276;98041;-74
2022/07/01 09:01:13;;;;;;;16.00;6.50;;;;;;;44.13;34.83;98699.67;105849;1276;111140;-74
2022/07/01 09:03:45;;;;;;;13.20;6.60;;;;;;;44.21;34.27;98698.84;105880;1276;98606;-74
2022/07/01 09:06:25;;;;;;;11.80;6.50;;;;;;;44.25;33.95;98702.50;105900;1277;107751;-73
2022/07/01 09:08:54;;;;;;;17.50;6.20;;;;;;;44.07;33.47;98702.10;105955;1276;95228;-73
2022/07/01 09:11:26;;;;;;;12.70;6.00;;;;;;;43.79;33.07;98702.05;106032;1276;95725;-73
2022/07/01 09:14:11;;;;;;;14.70;6.10;;;;;;;43.71;32.92;98701.20;105945;1277;112486;-74
2022/07/01 09:16:42;;;;;;;12.80;6.20;;;;;;;43.72;32.07;98703.46;105962;1276;97752;-74
2022/07/01 09:19:12;;;;;;;11.90;5.90;;;;;;;43.04;30.06;98701.13;105999;1276;107728;-73
2022/07/01 09:21:41;;;;;;;12.30;6.30;;;;;;;42.35;29.58;98703.30;106034;1276;97915;-73
2022/07/01 09:24:27;;;;;;;9.60;5.90;;;;;;;42.10;29.92;98704.70;105992;1276;97967;-75
2022/07/01 09:27:18;;;;;;;15.20;6.00;;;;;;;42.20;30.18;98699.92;105959;1276;111411;-75
2022/07/01 09:29:50;;;;;;;13.50;6.20;;;;;;;42.36;30.04;98699.64;105967;1276;97041;-74
2022/07/01 09:32:21;;;;;;;15.70;6.20;;;;;;;42.15;29.45;98701.79;105877;1277;107790;-75
2022/07/01 09:34:54;;;;;;;14.10;6.60;;;;;;;41.96;29.18;98701.50;105968;1276;98006;-74
2022/07/01 09:37:26;;;;;;;11.90;6.30;;;;;;;41.83;29.19;98699.61;105956;1276;95314;-76
2022/07/01 09:39:57;;;;;;;11.60;6.60;;;;;;;41.50;28.46;98693.59;105999;1276;111399;-75
2022/07/01 09:42:27;;;;;;;13.20;6.30;;;;;;;41.23;28.53;98689.45;106006;1276;97990;-77
2022/07/01 09:45:04;;;;;;;18.70;7.20;;;;;;;41.06;28.52;98689.49;105941;1277;106543;-78
2022/07/01 09:47:36;;;;;;;14.00;6.60;;;;;;;40.93;28.58;98686.96;105985;1276;95402;-76
2022/07/01 09:50:07;;;;;;;16.40;6.80;;;;;;;40.90;28.76;98685.70;106024;1276;95211;-74
2022/07/01 09:52:37;;;;;;;14.50;6.60;;;;;;;40.95;28.59;98682.22;106061;1276;111897;-75
2022/07/01 09:55:08;;;;;;;17.30;7.10;;;;;;;40.89;28.63;98680.73;106141;1276;97872;-75
2022/07/01 09:57:36;;;;;;;13.80;7.00;;;;;;;40.78;28.66;98675.19;106052;1276;107763;-75
2022/07/01 10:00:06;;;;;;;15.00;7.30;;;;;;;40.74;28.71;98674.42;105983;1276;96581;-75
2022/07/01 10:02:36;;;;;;;15.90;7.00;;;;;;;40.69;28.68;98673.48;105920;1278;97971;-75
2022/07/01 10:05:14;;;;;;;17.80;6.90;;;;;;;40.58;28.74;98671.63;106003;1276;111400;-76
2022/07/01 10:07:58;;;;;;;14.10;7.10;;;;;;;40.39;28.67;98673.62;106037;1276;96598;-77
2022/07/01 10:10:41;;;;;;;18.80;6.90;;;;;;;40.15;28.78;98671.11;105925;1276;108370;-76
2022/07/01 10:13:16;;;;;;;16.20;7.20;;;;;;;39.91;28.92;98674.71;105937;1277;95378;-74
2022/07/01 10:15:48;;;;;;;17.20;7.70;;;;;;;39.73;28.84;98672.30;105883;1277;97982;-76
2022/07/01 10:18:27;;;;;;;14.80;7.00;;;;;;;39.58;28.99;98670.48;105945;1276;111447;-76
2022/07/01 10:20:57;;;;;;;15.30;7.10;;;;;;;39.34;28.97;98664.61;105921;1276;97050;-75
2022/07/01 10:23:39;;;;;;;13.80;6.90;;;;;;;39.09;28.94;98663.11;105923;1276;107780;-76
2022/07/01 10:26:11;;;;;;;15.50;6.50;;;;;;;38.89;29.00;98659.95;105919;1276;97998;-75
2022/07/01 10:28:48;;;;;;;;;;;;;;;38.72;28.98;98658.11;106029;1276;97867;-74
2022/07/01 10:31:18;;;;;;;21.50;7.90;;;;;;;38.54;29.20;98660.37;105945;1276;111445;-75
2022/07/01 10:33:53;;;;;;;20.50;8.10;;;;;;;38.42;29.22;98662.96;105960;1276;97917;-75
2022/07/01 10:36:21;;;;;;;15.70;7.50;;;;;;;38.28;29.15;98662.30;105899;1276;107820;-74
2022/07/01 10:39:03;;;;;;;20.50;8.80;;;;;;;38.19;29.52;98661.88;105890;1276;97853;-74
2022/07/01 10:41:54;;;;;;;14.10;7.10;;;;;;;38.08;29.52;98657.52;105893;1276;96005;-76
2022/07/01 10:45:07;;;;;;;19.20;7.80;;;;;;;37.96;29.63;98660.27;105970;1276;111995;-75
2022/07/01 10:47:39;;;;;;;13.40;7.70;;;;;;;37.88;29.63;98654.45;105964;1276;95745;-73
2022/07/01 10:50:09;;;;;;;17.80;8.00;;;;;;;37.73;29.71;98653.51;105983;1276;107697;-73
2022/07/01 10:52:39;;;;;;;24.80;8.80;;;;;;;37.56;29.67;98649.78;106018;1276;97752;-71
2022/07/01 10:55:09;;;;;;;16.60;7.60;;;;;;;37.45;29.82;98645.34;106042;1276;96581;-76
2022/07/01 10:57:41;;;;;;;14.80;7.30;;;;;;;37.34;29.77;98646.19;106028;1276;111384;-73
2022/07/01 11:00:09;;;;;;;17.00;7.70;;;;;;;37.25;29.83;98640.95;105996;1276;95845;-75
2022/07/01 11:02:38;;;;;;;17.50;7.50;;;;;;;37.14;30.14;98638.39;105949;1276;107685;-77
2022/07/01 11:05:14;;;;;;;18.00;7.20;;;;;;;37.08;30.23;98636.94;105904;1277;97987;-72
2022/07/01 11:07:47;;;;;;;18.00;7.80;;;;;;;37.05;30.19;98636.68;105946;1277;95215;-74
2022/07/01 11:10:18;;;;;;;14.10;7.50;;;;;;;36.98;30.25;98635.77;105887;1276;111408;-72
2022/07/01 11:12:49;;;;;;;15.90;7.50;;;;;;;36.96;30.35;98639.79;105877;1277;97803;-72
2022/07/01 11:15:18;;;;;;;;;;;;;;;36.92;30.47;98636.59;105946;1276;106323;-71
2022/07/01 11:17:49;;;;;;;19.00;7.20;;;;;;;36.89;30.64;98633.38;105924;1277;97915;-71
2022/07/01 11:20:17;;;;;;;13.70;7.20;;;;;;;36.87;30.71;98629.41;105943;1276;97881;-71
2022/07/01 11:22:51;;;;;;;20.20;8.90;;;;;;;36.86;30.61;98626.94;105857;1276;111401;-72
2022/07/01 11:25:21;;;;;;;15.70;7.90;;;;;;;36.75;30.65;98622.63;105980;1276;98411;-73
2022/07/01 11:27:51;;;;;;;21.90;8.50;;;;;;;36.54;30.60;98624.92;105946;1276;107803;-75
2022/07/01 11:30:22;;;;;;;17.70;7.70;;;;;;;36.28;30.63;98618.04;105884;1276;95196;-77
2022/07/01 11:32:57;;;;;;;15.00;7.60;;;;;;;35.99;30.82;98613.89;105992;1277;97837;-76
2022/07/01 11:41:27;;;;;;;12.80;7.00;;;;;;;35.27;31.31;98603.89;105885;1276;107734;-71
2022/07/01 11:43:55;;;;;;;14.20;7.10;;;;;;;35.29;31.47;98599.69;105899;1276;97923;-69
2022/07/01 11:46:24;;;;;;;19.10;7.50;;;;;;;35.22;31.52;98596.82;105801;1278;98664;-68